createdAt,value
2023-03-15T00:01:52.163Z,2.89
2023-03-15T00:04:24.581Z,2.87
2023-03-15T00:06:51.396Z,2.84
2023-03-15T00:09:18.233Z,2.81
2023-03-15T00:11:45.183Z,2.79
2023-03-15T00:14:12.172Z,2.77
2023-03-15T00:16:39.277Z,2.74
2023-03-15T00:19:10.535Z,2.72
2023-03-15T00:21:39.741Z,2.72
2023-03-15T00:24:06.877Z,2.69
2023-03-15T00:26:35.208Z,2.68
2023-03-15T00:29:02.108Z,2.66
2023-03-15T00:31:32.372Z,2.65
2023-03-15T00:33:59.263Z,2.62
2023-03-15T00:36:26.001Z,2.60
2023-03-15T00:38:54.946Z,2.58
2023-03-15T00:41:22.136Z,2.55
2023-03-15T00:43:50.704Z,2.54
2023-03-15T00:46:17.925Z,2.51
2023-03-15T00:48:47.861Z,2.49
2023-03-15T00:51:16.800Z,2.47
2023-03-15T00:53:44.639Z,2.45
2023-03-15T00:56:17.867Z,2.43
2023-03-15T00:58:44.586Z,2.40
2023-03-15T01:01:16.519Z,2.38
2023-03-15T01:03:44.287Z,2.36
2023-03-15T01:06:12.992Z,2.34
2023-03-15T01:08:40.793Z,2.31
2023-03-15T01:11:09.494Z,2.30
2023-03-15T01:13:36.582Z,2.28
2023-03-15T01:16:04.021Z,2.26
2023-03-15T01:18:31.390Z,2.25
2023-03-15T01:20:58.479Z,2.22
2023-03-15T01:23:25.314Z,2.21
2023-03-15T01:25:52.149Z,2.19
2023-03-15T01:28:19.782Z,2.17
2023-03-15T01:30:50.949Z,2.14
2023-03-15T01:33:18.719Z,2.11
2023-03-15T01:35:45.660Z,2.08
2023-03-15T01:38:12.720Z,2.06
2023-03-15T01:40:41.876Z,2.04
2023-03-15T01:43:20.290Z,2.01
2023-03-15T01:46:06.284Z,1.99
2023-03-15T01:48:50.221Z,1.96
2023-03-15T01:51:36.565Z,1.92
2023-03-15T01:54:08.172Z,1.88
2023-03-15T01:56:36.870Z,1.85
2023-03-15T01:59:04.721Z,1.82
2023-03-15T02:01:32.251Z,1.79
2023-03-15T02:04:04.556Z,1.75
2023-03-15T02:06:34.470Z,1.73
2023-03-15T02:09:07.972Z,1.71
2023-03-15T02:11:36.776Z,1.69
2023-03-15T02:14:05.231Z,1.68
2023-03-15T02:16:32.884Z,1.66
2023-03-15T02:19:05.675Z,1.64
2023-03-15T02:21:42.758Z,1.62
2023-03-15T02:24:43.437Z,1.59
2023-03-15T02:27:10.927Z,1.56
2023-03-15T02:29:38.614Z,1.53
2023-03-15T02:32:08.645Z,1.50
2023-03-15T02:34:37.010Z,1.48
2023-03-15T02:37:04.158Z,1.47
2023-03-15T02:39:31.520Z,1.46
2023-03-15T02:41:58.370Z,1.43
2023-03-15T02:44:38.446Z,1.41
2023-03-15T02:47:27.165Z,1.39
2023-03-15T02:49:54.077Z,1.36
2023-03-15T02:52:22.164Z,1.33
2023-03-15T02:54:49.405Z,1.31
2023-03-15T02:57:18.532Z,1.30
2023-03-15T02:59:46.400Z,1.27
2023-03-15T03:02:21.688Z,1.25
2023-03-15T03:04:48.576Z,1.23
2023-03-15T03:07:16.258Z,1.20
2023-03-15T03:09:53.437Z,1.18
2023-03-15T03:12:20.709Z,1.15
2023-03-15T03:14:53.829Z,1.12
2023-03-15T03:17:22.858Z,1.08
2023-03-15T03:19:51.233Z,1.05
2023-03-15T03:22:19.745Z,1.03
2023-03-15T03:24:48.090Z,1.00
2023-03-15T03:27:15.890Z,0.98
2023-03-15T03:29:44.945Z,0.94
2023-03-15T03:32:12.297Z,0.91
2023-03-15T03:34:39.065Z,0.89
2023-03-15T03:37:07.619Z,0.85
2023-03-15T03:40:14.071Z,0.82
2023-03-15T03:42:41.344Z,0.79
2023-03-15T03:45:09.011Z,0.76
2023-03-15T03:47:40.557Z,0.73
2023-03-15T03:50:10.205Z,0.70
2023-03-15T03:52:37.049Z,0.67
2023-03-15T03:55:13.054Z,0.65
2023-03-15T03:57:40.724Z,0.62
2023-03-15T04:00:13.626Z,0.59
2023-03-15T04:02:44.912Z,0.57
2023-03-15T04:05:14.667Z,0.55
2023-03-15T04:07:43.180Z,0.52
2023-03-15T04:10:14.189Z,0.51
2023-03-15T04:12:43.429Z,0.49
2023-03-15T04:15:11.369Z,0.49
2023-03-15T04:17:39.111Z,0.50
2023-03-15T04:20:08.466Z,0.52
2023-03-15T04:22:38.226Z,0.54
2023-03-15T04:25:28.056Z,0.57
2023-03-15T04:28:14.139Z,0.60
2023-03-15T04:30:58.391Z,0.64
2023-03-15T04:33:44.121Z,0.68
2023-03-15T04:36:31.355Z,0.72
2023-03-15T04:39:16.434Z,0.77
2023-03-15T04:42:10.249Z,0.81
2023-03-15T04:44:56.570Z,0.86
2023-03-15T04:47:59.190Z,0.93
2023-03-15T04:50:30.754Z,1.00
2023-03-15T04:53:10.806Z,1.08
2023-03-15T04:55:53.307Z,1.22
2023-03-15T04:58:29.971Z,1.43
2023-03-15T05:01:34.502Z,1.95
2023-03-15T05:04:40.169Z,2.73
2023-03-15T05:07:20.404Z,3.48
2023-03-15T05:09:58.547Z,4.20
2023-03-15T05:12:25.518Z,4.85
2023-03-15T05:15:11.196Z,5.59
2023-03-15T05:17:47.806Z,5.99
2023-03-15T05:20:25.524Z,6.32
2023-03-15T05:23:13.584Z,6.81
2023-03-15T05:25:59.736Z,7.18
2023-03-15T05:28:51.992Z,7.13
2023-03-15T05:31:21.510Z,7.14
2023-03-15T05:34:04.100Z,7.33
2023-03-15T05:36:37.305Z,7.49
2023-03-15T05:39:22.316Z,7.32
2023-03-15T05:42:05.645Z,7.01
2023-03-15T05:45:08.392Z,6.92
2023-03-15T05:48:01.458Z,7.56
2023-03-15T05:50:40.786Z,8.41
2023-03-15T05:53:31.248Z,9.19
2023-03-15T05:56:10.193Z,9.66
2023-03-15T05:58:55.649Z,9.66
2023-03-15T06:01:48.008Z,9.30
2023-03-15T06:04:20.698Z,9.35
2023-03-15T06:06:47.894Z,9.92
2023-03-15T06:09:14.761Z,10.36
2023-03-15T06:11:41.712Z,10.65
2023-03-15T06:14:12.056Z,10.99
2023-03-15T06:16:52.812Z,11.19
2023-03-15T06:19:20.886Z,11.08
2023-03-15T06:21:48.257Z,10.85
2023-03-15T06:24:25.019Z,10.54
2023-03-15T06:26:54.480Z,10.28
2023-03-15T06:29:22.139Z,10.03
2023-03-15T06:31:50.549Z,9.74
2023-03-15T06:34:18.180Z,9.50
2023-03-15T06:36:45.967Z,9.37
2023-03-15T06:39:12.887Z,9.38
2023-03-15T06:41:41.402Z,9.48
2023-03-15T06:44:14.273Z,9.65
2023-03-15T06:46:42.452Z,9.94
2023-03-15T06:49:11.971Z,10.23
2023-03-15T06:51:39.469Z,10.53
2023-03-15T06:54:07.523Z,10.86
2023-03-15T06:56:36.816Z,11.03
2023-03-15T06:59:04.091Z,10.98
2023-03-15T07:01:33.963Z,10.97
2023-03-15T07:04:01.666Z,11.03
2023-03-15T07:06:29.067Z,11.17
2023-03-15T07:08:58.087Z,11.45
2023-03-15T07:11:25.373Z,11.70
2023-03-15T07:13:58.508Z,11.88
2023-03-15T07:16:36.452Z,12.23
2023-03-15T07:19:04.295Z,12.46
2023-03-15T07:21:33.984Z,13.03
2023-03-15T07:24:01.997Z,14.14
2023-03-15T07:26:29.698Z,15.22
2023-03-15T07:29:00.118Z,15.92
2023-03-15T07:31:27.833Z,16.17
2023-03-15T07:33:55.463Z,16.75
2023-03-15T07:36:26.393Z,17.78
2023-03-15T07:38:56.583Z,18.57
2023-03-15T07:41:26.146Z,19.29
2023-03-15T07:44:16.476Z,20.04
2023-03-15T07:46:45.238Z,20.56
2023-03-15T07:49:12.488Z,21.03
2023-03-15T07:51:39.399Z,21.33
2023-03-15T07:54:11.068Z,21.62
2023-03-15T07:56:40.289Z,21.94
2023-03-15T07:59:10.775Z,22.33
2023-03-15T08:01:40.252Z,22.81
2023-03-15T08:04:08.570Z,22.88
2023-03-15T08:06:45.509Z,23.06
2023-03-15T08:09:12.484Z,23.35
2023-03-15T08:11:40.038Z,23.71
2023-03-15T08:14:13.719Z,24.12
2023-03-15T08:16:43.217Z,24.48
2023-03-15T08:19:10.587Z,24.80
2023-03-15T08:21:38.618Z,25.24
2023-03-15T08:24:06.868Z,25.67
2023-03-15T08:26:37.760Z,25.91
2023-03-15T08:29:04.801Z,25.89
2023-03-15T08:31:32.089Z,26.03
2023-03-15T08:33:59.202Z,26.30
2023-03-15T08:36:39.123Z,26.65
2023-03-15T08:39:08.147Z,26.75
2023-03-15T08:41:35.727Z,26.71
2023-03-15T08:44:05.225Z,26.92
2023-03-15T08:46:33.333Z,26.78
2023-03-15T08:49:02.300Z,26.42
2023-03-15T08:51:31.840Z,26.24
2023-03-15T08:53:59.168Z,26.25
2023-03-15T08:56:33.117Z,25.95
2023-03-15T08:59:00.363Z,25.77
2023-03-15T09:01:29.734Z,25.84
2023-03-15T09:03:56.687Z,25.97
2023-03-15T09:06:24.393Z,26.10
2023-03-15T09:08:53.236Z,26.27
2023-03-15T09:11:21.438Z,26.33
2023-03-15T09:13:48.623Z,26.23
2023-03-15T09:21:08.881Z,25.54
2023-03-15T09:23:37.214Z,25.13
2023-03-15T09:26:04.256Z,24.92
2023-03-15T09:28:31.349Z,24.80
2023-03-15T09:31:00.160Z,24.76
2023-03-15T09:33:27.590Z,24.58
2023-03-15T09:36:01.172Z,24.47
2023-03-15T09:38:28.876Z,24.41
2023-03-15T09:41:01.736Z,24.61
2023-03-15T09:44:13.592Z,24.73
2023-03-15T09:47:16.142Z,24.95
2023-03-15T09:49:51.833Z,25.00
2023-03-15T09:52:37.452Z,24.95
2023-03-15T09:55:23.594Z,24.95
2023-03-15T09:57:56.767Z,24.98
2023-03-15T10:00:45.956Z,24.68
2023-03-15T10:03:50.028Z,24.66
2023-03-15T10:06:26.705Z,24.71
2023-03-15T10:09:02.659Z,24.77
2023-03-15T10:11:49.935Z,24.97
2023-03-15T10:14:40.601Z,25.01
2023-03-15T10:17:11.926Z,25.13
2023-03-15T10:20:00.711Z,25.25
2023-03-15T10:22:31.085Z,25.38
2023-03-15T10:25:06.980Z,25.43
2023-03-15T10:27:38.688Z,25.03
2023-03-15T10:30:25.847Z,24.45
2023-03-15T10:33:35.900Z,23.63
2023-03-15T10:36:14.425Z,22.58
2023-03-15T10:38:44.864Z,22.10
2023-03-15T10:41:17.836Z,21.89
2023-03-15T10:44:00.948Z,21.51
2023-03-15T10:46:30.623Z,21.14
2023-03-15T10:48:59.588Z,20.84
2023-03-15T10:51:32.644Z,20.39
2023-03-15T10:58:41.626Z,18.97
2023-03-15T11:01:13.380Z,18.73
2023-03-15T11:03:41.114Z,18.46
2023-03-15T11:06:25.333Z,18.14
2023-03-15T11:09:11.122Z,17.87
2023-03-15T11:12:01.004Z,17.66
2023-03-15T11:14:43.642Z,17.59
2023-03-15T11:17:32.523Z,17.50
2023-03-15T11:20:12.859Z,17.29
2023-03-15T11:22:45.857Z,17.05
2023-03-15T11:35:08.961Z,16.22
2023-03-15T11:38:13.082Z,15.67
2023-03-15T11:40:45.070Z,15.30
2023-03-15T11:43:30.989Z,15.20
2023-03-15T11:46:04.585Z,14.99
2023-03-15T11:48:50.108Z,14.80
2023-03-15T11:51:18.100Z,14.47
2023-03-15T11:58:41.829Z,13.95
2023-03-15T12:01:10.305Z,13.84
2023-03-15T12:03:41.873Z,13.68
2023-03-15T12:06:16.704Z,13.53
2023-03-15T12:09:03.215Z,13.55
2023-03-15T12:25:21.760Z,14.06
2023-03-15T12:27:52.980Z,14.08
2023-03-15T12:30:30.483Z,14.06
2023-03-15T12:32:58.322Z,14.07
2023-03-15T12:35:29.141Z,14.08
2023-03-15T12:37:56.447Z,14.01
2023-03-15T12:45:16.279Z,13.96
2023-03-15T12:47:49.598Z,14.04
2023-03-15T12:50:38.221Z,13.98
2023-03-15T12:53:16.243Z,13.99
2023-03-15T12:55:42.983Z,14.15
2023-03-15T12:58:12.798Z,14.25
2023-03-15T13:00:40.613Z,14.25
2023-03-15T13:03:08.098Z,14.24
2023-03-15T13:06:03.780Z,14.21
2023-03-15T13:08:37.877Z,14.08
2023-03-15T13:11:11.214Z,13.94
2023-03-15T13:13:56.626Z,13.89
2023-03-15T13:16:35.404Z,13.83
2023-03-15T13:19:29.920Z,13.67
2023-03-15T13:22:20.740Z,13.48
2023-03-15T13:25:09.252Z,13.31
2023-03-15T13:27:58.501Z,13.19
2023-03-15T13:30:36.754Z,13.11
2023-03-15T13:33:30.849Z,13.12
2023-03-15T13:36:00.332Z,13.19
2023-03-15T13:38:54.339Z,13.26
2023-03-15T13:41:24.105Z,13.27
2023-03-15T13:43:52.397Z,13.31
2023-03-15T13:46:26.622Z,13.35
2023-03-15T13:48:55.620Z,13.37
2023-03-15T13:51:27.138Z,13.38
2023-03-15T13:54:02.848Z,13.40
2023-03-15T13:56:46.817Z,13.39
2023-03-15T13:59:15.570Z,13.18
2023-03-15T14:01:42.568Z,12.91
2023-03-15T14:04:16.802Z,12.62
2023-03-15T14:06:45.176Z,12.28
2023-03-15T14:09:21.015Z,11.98
2023-03-15T14:12:05.379Z,11.67
2023-03-15T14:14:38.026Z,11.37
2023-03-15T14:17:18.702Z,11.22
2023-03-15T14:19:53.971Z,11.17
2023-03-15T14:22:21.298Z,11.14
2023-03-15T14:24:51.241Z,11.15
2023-03-15T14:27:26.859Z,11.15
2023-03-15T14:30:00.841Z,11.09
2023-03-15T14:32:35.203Z,11.01
2023-03-15T14:35:07.465Z,10.90
2023-03-15T14:37:43.913Z,10.75
2023-03-15T14:40:28.518Z,10.64
2023-03-15T14:42:58.586Z,10.54
2023-03-15T14:45:29.562Z,10.46
2023-03-15T14:48:26.769Z,10.34
2023-03-15T14:50:57.083Z,10.20
2023-03-15T14:53:27.573Z,10.05
2023-03-15T14:55:57.572Z,9.92
2023-03-15T14:58:27.547Z,9.80
2023-03-15T15:00:58.362Z,9.71
2023-03-15T15:03:41.619Z,9.63
2023-03-15T15:06:12.471Z,9.51
2023-03-15T15:08:48.612Z,9.40
2023-03-15T15:11:17.566Z,9.30
2023-03-15T15:13:49.104Z,9.20
2023-03-15T15:16:18.639Z,9.10
2023-03-15T15:18:47.853Z,9.01
2023-03-15T15:21:33.510Z,8.89
2023-03-15T15:31:55.604Z,8.43
2023-03-15T15:34:22.692Z,8.31
2023-03-15T15:36:49.810Z,8.20
2023-03-15T15:39:16.737Z,8.09
2023-03-15T15:41:43.531Z,8.01
2023-03-15T15:44:17.996Z,7.92
2023-03-15T15:46:45.061Z,7.82
2023-03-15T15:49:11.835Z,7.73
2023-03-15T15:51:42.353Z,7.65
2023-03-15T15:54:16.284Z,7.56
2023-03-15T15:56:53.919Z,7.48
2023-03-15T15:59:21.132Z,7.40
2023-03-15T16:02:00.060Z,7.35
2023-03-15T16:04:30.385Z,7.30
2023-03-15T16:07:00.751Z,7.28
2023-03-15T16:09:28.033Z,7.26
2023-03-15T16:11:56.380Z,7.25
2023-03-15T16:14:23.242Z,7.24
2023-03-15T16:16:50.174Z,7.23
2023-03-15T16:19:17.565Z,7.21
2023-03-15T16:21:47.220Z,7.19
2023-03-15T16:24:20.567Z,7.16
2023-03-15T16:26:47.405Z,7.12
2023-03-15T16:29:19.422Z,7.08
2023-03-15T16:31:46.544Z,7.04
2023-03-15T16:34:14.636Z,6.99
2023-03-15T16:36:48.520Z,6.92
2023-03-15T16:39:16.417Z,6.84
2023-03-15T16:41:43.820Z,6.75
2023-03-15T16:44:12.194Z,6.67
2023-03-15T16:46:39.248Z,6.59
2023-03-15T16:49:08.327Z,6.50
2023-03-15T16:51:36.897Z,6.42
2023-03-15T16:54:16.124Z,6.34
2023-03-15T16:56:46.548Z,6.27
2023-03-15T16:59:14.798Z,6.20
2023-03-15T17:01:43.522Z,6.15
2023-03-15T17:04:10.665Z,6.09
2023-03-15T17:06:38.284Z,6.04
2023-03-15T17:09:09.755Z,6.00
2023-03-15T17:11:40.843Z,5.94
2023-03-15T17:14:09.310Z,5.90
2023-03-15T17:16:36.733Z,5.88
2023-03-15T17:19:03.928Z,5.84
2023-03-15T17:21:30.872Z,5.82
2023-03-15T17:23:57.816Z,5.80
2023-03-15T17:26:34.114Z,5.78
2023-03-15T17:29:02.047Z,5.76
2023-03-15T17:31:29.464Z,5.74
2023-03-15T17:33:56.867Z,5.72
2023-03-15T17:36:24.937Z,5.70
2023-03-15T17:38:54.542Z,5.68
2023-03-15T17:41:24.020Z,5.66
2023-03-15T17:43:51.018Z,5.64
2023-03-15T17:46:18.724Z,5.63
2023-03-15T17:48:46.409Z,5.61
2023-03-15T17:51:21.608Z,5.60
2023-03-15T17:53:49.103Z,5.59
2023-03-15T17:56:16.314Z,5.56
2023-03-15T17:58:46.518Z,5.54
2023-03-15T18:01:23.856Z,5.52
2023-03-15T18:03:55.136Z,5.49
2023-03-15T18:06:23.924Z,5.45
2023-03-15T18:08:54.326Z,5.42
2023-03-15T18:11:25.329Z,5.38
2023-03-15T18:13:52.314Z,5.35
2023-03-15T18:16:25.843Z,5.32
2023-03-15T18:18:55.370Z,5.28
2023-03-15T18:21:24.613Z,5.23
2023-03-15T18:23:54.138Z,5.20
2023-03-15T18:26:21.277Z,5.17
2023-03-15T18:28:48.625Z,5.12
2023-03-15T18:31:22.591Z,5.08
2023-03-15T18:36:44.780Z,5.02
2023-03-15T18:39:11.504Z,4.99
2023-03-15T18:41:38.657Z,4.98
2023-03-15T18:44:05.512Z,4.96
2023-03-15T18:46:32.569Z,4.94
2023-03-15T18:49:00.539Z,4.91
2023-03-15T18:51:27.781Z,4.89
2023-03-15T18:53:55.090Z,4.86
2023-03-15T18:56:23.863Z,4.84
2023-03-15T18:58:51.783Z,4.82
2023-03-15T19:01:19.397Z,4.79
2023-03-15T19:03:48.639Z,4.76
2023-03-15T19:06:15.481Z,4.74
2023-03-15T19:08:42.428Z,4.72
2023-03-15T19:11:10.714Z,4.69
2023-03-15T19:13:37.959Z,4.66
2023-03-15T19:16:06.336Z,4.63
2023-03-15T19:18:34.301Z,4.60
2023-03-15T19:21:07.291Z,4.57
2023-03-15T19:23:34.698Z,4.54
2023-03-15T19:26:01.688Z,4.51
2023-03-15T19:28:31.197Z,4.48
2023-03-15T19:30:58.328Z,4.46
2023-03-15T19:33:25.128Z,4.43
2023-03-15T19:35:52.217Z,4.40
2023-03-15T19:38:19.436Z,4.38
2023-03-15T19:40:54.640Z,4.36
2023-03-15T19:43:22.385Z,4.34
2023-03-15T19:45:49.432Z,4.31
2023-03-15T19:48:18.429Z,4.30
2023-03-15T19:50:46.807Z,4.28
2023-03-15T19:53:16.819Z,4.25
2023-03-15T19:55:45.198Z,4.22
2023-03-15T19:58:12.862Z,4.20
2023-03-15T20:00:40.214Z,4.18
2023-03-15T20:03:07.160Z,4.15
2023-03-15T20:05:37.918Z,4.13
2023-03-15T20:08:05.536Z,4.09
2023-03-15T20:10:32.631Z,4.07
2023-03-15T20:12:59.464Z,4.05
2023-03-15T20:15:28.910Z,4.03
2023-03-15T20:17:56.305Z,4.01
2023-03-15T20:20:23.871Z,4.00
2023-03-15T20:22:51.328Z,3.97
2023-03-15T20:25:19.078Z,3.95
2023-03-15T20:27:49.673Z,3.94
2023-03-15T20:30:17.130Z,3.93
2023-03-15T20:32:44.730Z,3.92
2023-03-15T20:35:11.507Z,3.90
2023-03-15T20:37:41.853Z,3.88
2023-03-15T20:40:13.831Z,3.88
2023-03-15T20:42:46.835Z,3.86
2023-03-15T20:45:14.090Z,3.86
2023-03-15T20:47:41.118Z,3.85
2023-03-15T20:50:09.003Z,3.84
2023-03-15T20:52:36.804Z,3.83
2023-03-15T20:55:05.609Z,3.82
2023-03-15T20:57:32.758Z,3.81
2023-03-15T20:59:59.547Z,3.81
2023-03-15T21:02:26.487Z,3.80
2023-03-15T21:04:53.690Z,3.77
2023-03-15T21:07:20.591Z,3.76
2023-03-15T21:09:47.629Z,3.74
2023-03-15T21:12:15.187Z,3.72
2023-03-15T21:14:42.790Z,3.70
2023-03-15T21:17:14.000Z,3.68
2023-03-15T21:19:41.490Z,3.66
2023-03-15T21:22:11.312Z,3.63
2023-03-15T21:24:49.440Z,3.62
2023-03-15T21:27:21.848Z,3.59
2023-03-15T21:29:48.855Z,3.58
2023-03-15T21:32:15.924Z,3.58
2023-03-15T21:34:48.748Z,3.58
2023-03-15T21:37:15.568Z,3.56
2023-03-15T21:39:42.388Z,3.56
2023-03-15T21:42:11.287Z,3.56
2023-03-15T21:44:38.905Z,3.59
2023-03-15T21:47:06.202Z,3.61
2023-03-15T21:49:33.231Z,3.64
2023-03-15T21:52:01.793Z,3.69
2023-03-15T21:54:29.990Z,3.74
2023-03-15T21:56:57.039Z,3.80
2023-03-15T21:59:28.400Z,3.85
2023-03-15T22:01:56.155Z,3.91
2023-03-15T22:04:26.172Z,3.96
2023-03-15T22:06:54.139Z,3.99
2023-03-15T22:09:22.708Z,4.02
2023-03-15T22:11:49.971Z,4.04
2023-03-15T22:14:17.449Z,4.06
2023-03-15T22:16:44.376Z,4.07
2023-03-15T22:19:17.777Z,4.06
2023-03-15T22:21:45.776Z,4.05
2023-03-15T22:24:12.780Z,4.04
2023-03-15T22:26:42.354Z,4.02
2023-03-15T22:29:10.478Z,3.99
2023-03-15T22:31:37.666Z,3.94
2023-03-15T22:34:05.278Z,3.88
2023-03-15T22:36:33.256Z,3.83
2023-03-15T22:39:01.524Z,3.77
2023-03-15T22:41:28.667Z,3.72
2023-03-15T22:43:55.514Z,3.67
2023-03-15T22:46:22.467Z,3.64
2023-03-15T22:48:49.813Z,3.61
2023-03-15T22:51:16.790Z,3.57
2023-03-15T22:53:43.810Z,3.55
2023-03-15T22:56:10.564Z,3.54
2023-03-15T22:58:38.314Z,3.54
2023-03-15T23:01:05.228Z,3.55
2023-03-15T23:03:32.410Z,3.56
2023-03-15T23:05:59.859Z,3.57
2023-03-15T23:08:26.701Z,3.58
2023-03-15T23:10:57.022Z,3.59
2023-03-15T23:13:23.883Z,3.62
2023-03-15T23:15:51.061Z,3.65
2023-03-15T23:18:18.596Z,3.71
2023-03-15T23:20:45.423Z,3.75
2023-03-15T23:23:14.106Z,3.79
2023-03-15T23:25:41.252Z,3.84
2023-03-15T23:28:08.041Z,3.87
2023-03-15T23:30:36.412Z,3.90
2023-03-15T23:33:03.755Z,3.94
2023-03-15T23:35:33.421Z,3.97
2023-03-15T23:38:01.403Z,4.00
2023-03-15T23:40:29.806Z,4.02
2023-03-15T23:43:00.005Z,4.05
2023-03-15T23:45:28.992Z,4.07
2023-03-15T23:47:56.158Z,4.08
2023-03-15T23:50:27.117Z,4.11
2023-03-15T23:52:55.011Z,4.13
2023-03-15T23:55:23.124Z,4.15
2023-03-15T23:57:50.455Z,4.17
